createdAt,value
2022-10-21T00:00:54.196Z,95.83
2022-10-21T00:03:20.790Z,95.68
2022-10-21T00:05:47.344Z,95.64
2022-10-21T00:08:13.879Z,95.86
2022-10-21T00:10:40.324Z,96.06
2022-10-21T00:13:06.771Z,95.80
2022-10-21T00:15:33.139Z,95.90
2022-10-21T00:17:59.565Z,95.68
2022-10-21T00:20:25.947Z,95.92
2022-10-21T00:22:52.347Z,96.00
2022-10-21T00:25:18.799Z,95.68
2022-10-21T00:27:45.165Z,95.72
2022-10-21T00:30:11.951Z,96.29
2022-10-21T00:32:38.652Z,95.79
2022-10-21T00:35:05.691Z,95.73
2022-10-21T00:37:32.496Z,95.86
2022-10-21T00:39:58.932Z,96.06
2022-10-21T00:42:31.199Z,95.73
2022-10-21T00:45:06.618Z,95.95
2022-10-21T00:50:38.858Z,95.92
2022-10-21T00:53:11.094Z,95.74
2022-10-21T00:55:39.524Z,95.91
2022-10-21T00:58:05.887Z,95.93
2022-10-21T01:00:32.285Z,95.90
2022-10-21T01:02:58.685Z,95.67
2022-10-21T01:05:25.083Z,96.05
2022-10-21T01:07:51.500Z,95.61
2022-10-21T01:10:18.094Z,95.83
2022-10-21T01:12:48.961Z,95.65
2022-10-21T01:15:25.243Z,95.51
2022-10-21T01:18:18.167Z,95.54
2022-10-21T01:20:57.554Z,95.48
2022-10-21T01:23:44.207Z,95.85
2022-10-21T01:26:16.524Z,95.76
2022-10-21T01:29:10.884Z,95.56
2022-10-21T01:31:43.596Z,95.56
2022-10-21T01:34:31.688Z,95.59
2022-10-21T01:37:11.745Z,95.60
2022-10-21T01:39:41.987Z,95.55
2022-10-21T01:42:24.441Z,95.77
2022-10-21T01:45:03.094Z,95.54
2022-10-21T01:47:37.633Z,96.15
2022-10-21T01:50:13.363Z,96.02
2022-10-21T01:52:40.253Z,95.73
2022-10-21T01:55:09.080Z,95.88
2022-10-21T01:57:37.514Z,95.97
2022-10-21T02:00:04.273Z,95.92
2022-10-21T02:02:32.263Z,96.00
2022-10-21T02:04:58.673Z,96.39
2022-10-21T02:07:25.053Z,96.24
2022-10-21T02:09:51.448Z,96.48
2022-10-21T02:12:17.824Z,95.96
2022-10-21T02:14:46.327Z,96.37
2022-10-21T02:17:14.234Z,96.06
2022-10-21T02:19:40.677Z,96.49
2022-10-21T02:22:07.055Z,95.90
2022-10-21T02:24:36.269Z,96.55
2022-10-21T02:27:02.658Z,96.35
2022-10-21T02:29:33.399Z,95.85
2022-10-21T02:32:25.855Z,96.07
2022-10-21T02:34:58.203Z,96.55
2022-10-21T02:37:30.794Z,96.05
2022-10-21T02:40:01.178Z,96.04
2022-10-21T02:42:31.104Z,96.45
2022-10-21T02:44:57.472Z,96.22
2022-10-21T02:47:25.357Z,96.16
2022-10-21T02:49:51.728Z,96.44
2022-10-21T02:52:18.113Z,96.18
2022-10-21T02:54:44.479Z,96.22
2022-10-21T02:57:10.877Z,96.06
2022-10-21T02:59:37.248Z,96.16
2022-10-21T03:02:03.728Z,96.53
2022-10-21T03:04:30.093Z,96.00
2022-10-21T03:06:56.492Z,96.13
2022-10-21T03:09:23.083Z,96.57
2022-10-21T03:11:49.476Z,95.96
2022-10-21T03:14:15.937Z,96.52
2022-10-21T03:16:42.320Z,96.58
2022-10-21T03:19:11.303Z,95.95
2022-10-21T03:21:37.666Z,95.96
2022-10-21T03:24:10.890Z,96.25
2022-10-21T03:26:46.236Z,96.02
2022-10-21T03:29:12.705Z,96.58
2022-10-21T03:31:39.101Z,96.60
2022-10-21T03:34:05.516Z,96.14
2022-10-21T03:36:31.924Z,96.16
2022-10-21T03:38:58.361Z,96.23
2022-10-21T03:41:24.816Z,96.91
2022-10-21T03:43:51.236Z,96.81
2022-10-21T03:46:17.641Z,96.88
2022-10-21T03:48:44.066Z,96.83
2022-10-21T03:51:10.463Z,96.57
2022-10-21T03:53:43.319Z,96.78
2022-10-21T03:56:10.097Z,96.70
2022-10-21T03:58:36.545Z,97.12
2022-10-21T04:01:03.018Z,97.11
2022-10-21T04:03:29.454Z,96.87
2022-10-21T04:05:55.870Z,97.26
2022-10-21T04:08:22.299Z,96.65
2022-10-21T04:10:48.741Z,96.86
2022-10-21T04:13:15.179Z,96.60
2022-10-21T04:15:41.553Z,96.76
2022-10-21T04:18:08.028Z,96.99
2022-10-21T04:20:34.449Z,97.17
2022-10-21T04:23:01.037Z,96.78
2022-10-21T04:25:27.451Z,97.20
2022-10-21T04:27:53.832Z,96.56
2022-10-21T04:30:20.226Z,96.74
2022-10-21T04:32:46.647Z,96.72
2022-10-21T04:35:13.117Z,97.40
2022-10-21T04:37:39.553Z,97.24
2022-10-21T04:40:07.823Z,97.09
2022-10-21T04:42:34.247Z,97.21
2022-10-21T04:45:00.644Z,96.86
2022-10-21T04:47:27.031Z,97.30
2022-10-21T04:49:53.442Z,97.58
2022-10-21T04:52:19.875Z,97.22
2022-10-21T04:54:46.350Z,97.19
2022-10-21T04:57:12.770Z,96.98
2022-10-21T04:59:39.185Z,97.58
2022-10-21T05:02:05.662Z,97.24
2022-10-21T05:04:32.072Z,97.52
2022-10-21T05:06:58.439Z,97.54
2022-10-21T05:09:24.828Z,97.02
2022-10-21T05:11:51.191Z,97.44
2022-10-21T05:14:20.075Z,97.04
2022-10-21T05:16:49.109Z,97.37
2022-10-21T05:19:15.518Z,97.01
2022-10-21T05:21:41.935Z,96.83
2022-10-21T05:24:08.382Z,96.69
2022-10-21T05:26:34.790Z,96.85
2022-10-21T05:29:01.222Z,97.10
2022-10-21T05:31:27.594Z,97.01
2022-10-21T05:33:53.956Z,96.97
2022-10-21T05:36:23.250Z,97.21
2022-10-21T05:38:50.524Z,97.08
2022-10-21T05:41:16.919Z,96.80
2022-10-21T05:43:43.359Z,97.17
2022-10-21T05:46:09.755Z,97.45
2022-10-21T05:48:36.748Z,96.77
2022-10-21T05:51:03.362Z,96.86
2022-10-21T05:53:29.765Z,97.37
2022-10-21T05:56:06.347Z,97.28
2022-10-21T05:58:33.356Z,97.50
2022-10-21T06:00:59.940Z,97.29
2022-10-21T06:03:28.380Z,97.37
2022-10-21T06:05:54.817Z,97.18
2022-10-21T06:08:21.209Z,97.05
2022-10-21T06:10:47.605Z,96.93
2022-10-21T06:13:14.250Z,96.82
2022-10-21T06:15:40.654Z,96.71
2022-10-21T06:18:07.025Z,96.86
2022-10-21T06:20:35.619Z,97.56
2022-10-21T06:23:01.996Z,96.46
2022-10-21T06:25:28.404Z,96.79
2022-10-21T06:27:54.798Z,97.33
2022-10-21T06:30:21.200Z,97.23
2022-10-21T06:32:47.576Z,97.17
2022-10-21T06:35:14.065Z,97.15
2022-10-21T06:37:40.743Z,97.37
2022-10-21T06:40:08.111Z,97.07
2022-10-21T06:42:34.971Z,97.14
2022-10-21T06:45:01.345Z,96.53
2022-10-21T06:47:27.759Z,95.99
2022-10-21T06:49:54.194Z,96.30
2022-10-21T06:52:20.638Z,96.64
2022-10-21T06:54:47.059Z,96.18
2022-10-21T06:57:13.475Z,96.54
2022-10-21T06:59:39.921Z,96.22
2022-10-21T07:02:06.310Z,95.78
2022-10-21T07:04:32.679Z,96.25
2022-10-21T07:06:59.056Z,96.13
2022-10-21T07:09:25.496Z,96.22
2022-10-21T07:11:51.943Z,96.03
2022-10-21T07:14:18.356Z,96.34
2022-10-21T07:16:44.769Z,96.41
2022-10-21T07:19:11.184Z,96.08
2022-10-21T07:21:37.621Z,96.19
2022-10-21T07:24:04.166Z,95.99
2022-10-21T07:26:31.647Z,96.08
2022-10-21T07:28:58.066Z,96.17
2022-10-21T07:31:24.525Z,96.27
2022-10-21T07:33:50.949Z,96.41
2022-10-21T07:36:19.291Z,96.07
2022-10-21T07:38:46.613Z,96.53
2022-10-21T07:41:19.275Z,96.49
2022-10-21T07:43:45.711Z,96.39
2022-10-21T07:46:12.119Z,96.68
2022-10-21T07:48:38.530Z,96.59
2022-10-21T07:51:09.776Z,96.72
2022-10-21T07:53:36.227Z,96.77
2022-10-21T07:56:12.257Z,96.66
2022-10-21T07:58:38.777Z,96.80
2022-10-21T08:01:06.139Z,96.57
2022-10-21T08:03:32.731Z,96.64
2022-10-21T08:05:59.160Z,96.74
2022-10-21T08:08:25.598Z,96.38
2022-10-21T08:10:52.400Z,96.81
2022-10-21T08:13:19.108Z,96.87
2022-10-21T08:15:46.429Z,96.46
2022-10-21T08:18:12.838Z,96.11
2022-10-21T08:20:40.237Z,96.22
2022-10-21T08:23:07.205Z,96.06
2022-10-21T08:25:34.313Z,95.79
2022-10-21T08:28:01.029Z,96.05
2022-10-21T08:30:27.703Z,96.00
2022-10-21T08:32:54.102Z,95.60
2022-10-21T08:35:20.488Z,96.00
2022-10-21T08:37:46.891Z,95.57
2022-10-21T08:40:13.275Z,95.62
2022-10-21T08:42:39.924Z,95.66
2022-10-21T08:45:06.814Z,95.91
2022-10-21T08:47:39.123Z,95.85
2022-10-21T08:50:14.221Z,95.52
2022-10-21T08:52:54.840Z,95.56
2022-10-21T08:55:35.520Z,95.43
2022-10-21T08:58:02.562Z,95.32
2022-10-21T09:00:44.185Z,95.88
2022-10-21T09:03:22.770Z,95.51
2022-10-21T09:05:59.012Z,95.55
2022-10-21T09:08:33.794Z,95.39
2022-10-21T09:11:28.394Z,95.20
2022-10-21T09:14:31.602Z,95.16
2022-10-21T09:17:03.997Z,95.05
2022-10-21T09:19:48.765Z,95.04
2022-10-21T09:22:35.580Z,95.27
2022-10-21T09:25:15.498Z,94.93
2022-10-21T09:27:55.556Z,94.94
2022-10-21T09:30:22.835Z,94.84
2022-10-21T09:32:49.955Z,94.87
2022-10-21T09:35:57.859Z,94.20
2022-10-21T09:38:26.034Z,94.57
2022-10-21T09:40:53.099Z,94.17
2022-10-21T09:43:24.924Z,94.48
2022-10-21T09:45:51.334Z,94.53
2022-10-21T09:48:17.589Z,94.62
2022-10-21T09:50:54.409Z,94.93
2022-10-21T09:53:53.892Z,95.25
2022-10-21T09:56:22.505Z,95.62
2022-10-21T09:59:07.162Z,95.38
2022-10-21T10:01:34.406Z,95.45
2022-10-21T10:04:00.854Z,95.63
2022-10-21T10:06:37.917Z,95.58
2022-10-21T10:09:25.924Z,95.87
2022-10-21T10:11:54.510Z,95.72
2022-10-21T10:14:29.398Z,95.42
2022-10-21T10:16:56.966Z,95.18
2022-10-21T10:19:27.363Z,95.05
2022-10-21T10:22:20.070Z,95.01
2022-10-21T10:24:46.468Z,94.64
2022-10-21T10:27:18.909Z,94.85
2022-10-21T10:29:49.587Z,94.36
2022-10-21T10:32:15.982Z,94.50
2022-10-21T10:35:03.009Z,93.72
2022-10-21T10:37:33.000Z,93.63
2022-10-21T10:39:59.559Z,93.61
2022-10-21T10:42:28.144Z,93.49
2022-10-21T10:44:58.889Z,93.26
2022-10-21T10:47:29.819Z,92.99
2022-10-21T10:49:56.192Z,93.58
2022-10-21T10:52:23.488Z,93.31
2022-10-21T10:55:25.444Z,93.94
2022-10-21T10:58:06.222Z,93.78
2022-10-21T11:00:40.290Z,93.09
2022-10-21T11:03:07.043Z,93.14
2022-10-21T11:05:35.531Z,93.60
2022-10-21T11:08:21.357Z,93.11
2022-10-21T11:10:57.290Z,92.54
2022-10-21T11:13:24.011Z,93.56
2022-10-21T11:16:11.716Z,92.90
2022-10-21T11:18:46.431Z,93.17
2022-10-21T11:21:48.507Z,92.50
2022-10-21T11:24:29.157Z,92.36
2022-10-21T11:27:07.506Z,91.35
2022-10-21T11:29:42.712Z,91.90
2022-10-21T11:32:29.261Z,92.15
2022-10-21T11:35:14.885Z,91.59
2022-10-21T11:38:04.025Z,91.28
2022-10-21T11:40:49.228Z,91.09
2022-10-21T11:43:46.883Z,91.33
2022-10-21T11:46:38.340Z,90.81
2022-10-21T11:49:42.952Z,91.23
2022-10-21T11:52:09.186Z,90.73
2022-10-21T11:54:56.570Z,90.81
2022-10-21T11:58:10.028Z,90.62
2022-10-21T12:00:48.896Z,90.46
2022-10-21T12:03:33.668Z,90.04
2022-10-21T12:06:04.731Z,89.82
2022-10-21T12:08:35.535Z,89.52
2022-10-21T12:11:09.270Z,89.70
2022-10-21T12:13:42.245Z,89.75
2022-10-21T12:16:13.129Z,89.14
2022-10-21T12:18:44.088Z,88.60
2022-10-21T12:21:19.862Z,88.60
2022-10-21T12:23:47.803Z,88.31
2022-10-21T12:26:24.401Z,88.53
2022-10-21T12:28:50.724Z,89.05
2022-10-21T12:31:43.909Z,89.29
2022-10-21T12:34:10.185Z,88.50
2022-10-21T12:36:42.052Z,89.07
2022-10-21T12:39:16.956Z,88.78
2022-10-21T12:41:45.279Z,88.75
2022-10-21T12:44:20.573Z,89.17
2022-10-21T12:46:49.193Z,89.46
2022-10-21T12:49:31.562Z,89.75
2022-10-21T12:52:21.343Z,90.56
2022-10-21T12:54:58.734Z,89.94
2022-10-21T12:57:40.829Z,87.58
2022-10-21T13:00:16.958Z,87.26
2022-10-21T13:03:05.906Z,86.80
2022-10-21T13:05:38.450Z,86.74
2022-10-21T13:08:22.825Z,87.02
2022-10-21T13:11:04.470Z,87.43
2022-10-21T13:13:34.805Z,88.17
2022-10-21T13:16:22.006Z,88.10
2022-10-21T13:18:57.694Z,88.47
2022-10-21T13:21:48.064Z,88.28
2022-10-21T13:24:20.176Z,88.42
2022-10-21T13:26:54.849Z,88.33
2022-10-21T13:29:22.544Z,87.80
2022-10-21T13:32:10.603Z,87.51
2022-10-21T13:34:41.606Z,87.13
2022-10-21T13:37:13.315Z,86.98
2022-10-21T13:39:39.950Z,86.49
2022-10-21T13:42:08.270Z,86.49
2022-10-21T13:44:36.688Z,85.96
2022-10-21T13:47:18.362Z,85.84
2022-10-21T13:49:51.098Z,85.80
2022-10-21T13:52:17.508Z,86.12
2022-10-21T13:54:43.901Z,86.04
2022-10-21T13:57:14.301Z,86.43
2022-10-21T13:59:40.703Z,86.26
2022-10-21T14:02:07.095Z,86.38
2022-10-21T14:04:33.701Z,86.38
2022-10-21T14:07:01.793Z,85.99
2022-10-21T14:09:31.495Z,85.98
2022-10-21T14:12:32.607Z,86.20
2022-10-21T14:15:05.278Z,86.58
2022-10-21T14:17:31.697Z,86.37
2022-10-21T14:20:12.120Z,86.98
2022-10-21T14:22:38.899Z,86.96
2022-10-21T14:25:05.749Z,87.11
2022-10-21T14:27:33.217Z,87.04
2022-10-21T14:30:01.888Z,87.02
2022-10-21T14:32:28.276Z,87.72
2022-10-21T14:35:01.795Z,87.48
2022-10-21T14:37:36.335Z,87.34
2022-10-21T14:40:30.555Z,87.81
2022-10-21T14:42:57.084Z,88.15
2022-10-21T14:45:29.248Z,87.83
2022-10-21T14:48:28.703Z,88.07
2022-10-21T14:50:57.831Z,88.68
2022-10-21T14:53:24.204Z,88.62
2022-10-21T14:55:57.695Z,88.78
2022-10-21T14:58:44.275Z,89.11
2022-10-21T15:01:18.184Z,89.01
2022-10-21T15:03:52.030Z,89.65
2022-10-21T15:06:20.675Z,89.71
2022-10-21T15:08:55.752Z,89.78
2022-10-21T15:11:25.992Z,90.19
2022-10-21T15:14:04.792Z,90.02
2022-10-21T15:16:31.296Z,90.08
2022-10-21T15:18:57.824Z,90.78
2022-10-21T15:21:33.396Z,90.76
2022-10-21T15:23:59.788Z,90.68
2022-10-21T15:26:29.958Z,90.99
2022-10-21T15:28:56.351Z,90.88
2022-10-21T15:31:24.220Z,91.09
2022-10-21T15:33:51.980Z,91.56
2022-10-21T15:36:18.346Z,91.48
2022-10-21T15:38:45.372Z,91.43
2022-10-21T15:41:23.408Z,92.19
2022-10-21T15:43:55.967Z,92.75
2022-10-21T15:46:22.890Z,92.32
2022-10-21T15:48:49.266Z,92.90
2022-10-21T15:51:15.646Z,92.99
2022-10-21T15:53:44.464Z,92.50
2022-10-21T15:56:14.717Z,92.66
2022-10-21T15:58:41.129Z,93.33
2022-10-21T16:01:17.180Z,93.58
2022-10-21T16:03:44.362Z,93.29
2022-10-21T16:06:18.771Z,93.10
2022-10-21T16:08:45.277Z,93.22
2022-10-21T16:11:13.286Z,93.72
2022-10-21T16:13:39.680Z,93.72
2022-10-21T16:16:16.061Z,93.82
2022-10-21T16:18:42.448Z,93.69
2022-10-21T16:21:14.496Z,94.29
2022-10-21T16:23:40.932Z,94.88
2022-10-21T16:26:21.095Z,94.34
2022-10-21T16:28:48.341Z,94.14
2022-10-21T16:31:14.782Z,94.86
2022-10-21T16:33:41.462Z,94.12
2022-10-21T16:36:34.618Z,94.61
2022-10-21T16:39:01.142Z,95.06
2022-10-21T16:41:27.569Z,95.00
2022-10-21T16:43:54.767Z,94.73
2022-10-21T16:46:26.338Z,94.92
2022-10-21T16:48:52.874Z,95.78
2022-10-21T16:51:20.072Z,95.84
2022-10-21T16:53:46.476Z,96.14
2022-10-21T16:56:13.082Z,96.14
2022-10-21T16:58:39.504Z,96.14
2022-10-21T17:01:06.274Z,96.19
2022-10-21T17:03:33.324Z,96.17
2022-10-21T17:05:59.742Z,96.12
2022-10-21T17:08:26.120Z,96.55
2022-10-21T17:10:52.519Z,96.21
2022-10-21T17:13:18.879Z,96.16
2022-10-21T17:15:45.592Z,96.20
2022-10-21T17:18:15.487Z,96.46
2022-10-21T17:20:42.346Z,96.11
2022-10-21T17:23:09.703Z,97.42
2022-10-21T17:25:36.086Z,96.87
2022-10-21T17:28:02.451Z,97.41
2022-10-21T17:30:28.901Z,97.43
2022-10-21T17:32:55.285Z,97.54
2022-10-21T17:35:21.689Z,97.01
2022-10-21T17:37:48.411Z,96.93
2022-10-21T17:40:22.318Z,96.58
2022-10-21T17:42:48.811Z,96.84
2022-10-21T17:45:15.725Z,97.07
2022-10-21T17:47:42.305Z,97.48
2022-10-21T17:50:09.042Z,97.39
2022-10-21T17:52:36.295Z,96.67
2022-10-21T17:55:03.216Z,97.16
2022-10-21T17:57:29.589Z,97.49
2022-10-21T17:59:56.127Z,97.38
2022-10-21T18:02:22.569Z,97.36
2022-10-21T18:04:48.932Z,97.44
2022-10-21T18:07:17.713Z,96.96
2022-10-21T18:09:44.369Z,97.37
2022-10-21T18:12:10.775Z,97.83
2022-10-21T18:14:37.173Z,97.54
2022-10-21T18:17:03.614Z,97.80
2022-10-21T18:19:29.984Z,97.54
2022-10-21T18:21:56.375Z,98.21
2022-10-21T18:24:22.760Z,97.95
2022-10-21T18:26:49.147Z,98.22
2022-10-21T18:29:15.528Z,98.07
2022-10-21T18:31:41.936Z,98.32
2022-10-21T18:34:08.300Z,98.11
2022-10-21T18:36:34.723Z,97.80
2022-10-21T18:39:01.113Z,98.48
2022-10-21T18:41:27.535Z,98.16
2022-10-21T18:43:58.079Z,98.72
2022-10-21T18:46:24.538Z,98.48
2022-10-21T18:48:50.928Z,98.54
2022-10-21T18:51:17.737Z,98.01
2022-10-21T18:53:47.177Z,98.64
2022-10-21T18:56:16.503Z,98.54
2022-10-21T18:58:42.969Z,98.23
2022-10-21T19:01:13.243Z,98.15
2022-10-21T19:03:39.668Z,99.02
2022-10-21T19:06:27.777Z,98.65
2022-10-21T19:08:54.220Z,98.17
2022-10-21T19:11:20.619Z,98.52
2022-10-21T19:13:47.114Z,98.63
2022-10-21T19:16:13.527Z,98.38
2022-10-21T19:18:39.950Z,98.08
2022-10-21T19:21:06.518Z,98.75
2022-10-21T19:23:32.922Z,98.88
2022-10-21T19:26:06.818Z,98.68
2022-10-21T19:28:34.031Z,98.76
2022-10-21T19:31:00.424Z,98.29
2022-10-21T19:33:27.291Z,98.86
2022-10-21T19:35:53.654Z,98.39
2022-10-21T19:38:39.631Z,98.88
2022-10-21T19:41:10.679Z,98.66
2022-10-21T19:43:37.156Z,98.45
2022-10-21T19:46:04.607Z,98.74
2022-10-21T19:48:31.158Z,98.56
2022-10-21T19:50:57.537Z,98.83
2022-10-21T19:53:24.028Z,98.53
2022-10-21T19:55:50.439Z,98.50
2022-10-21T19:58:16.922Z,98.83
2022-10-21T20:00:43.865Z,98.46
2022-10-21T20:03:10.301Z,98.85
2022-10-21T20:05:40.487Z,98.38
2022-10-21T20:08:06.924Z,98.89
2022-10-21T20:10:33.618Z,99.41
2022-10-21T20:12:59.995Z,98.81
2022-10-21T20:15:26.482Z,99.19
2022-10-21T20:17:52.856Z,98.65
2022-10-21T20:20:19.273Z,99.25
2022-10-21T20:22:45.644Z,99.45
2022-10-21T20:25:12.057Z,98.79
2022-10-21T20:27:38.651Z,98.87
2022-10-21T20:30:05.621Z,98.79
2022-10-21T20:32:31.999Z,99.02
2022-10-21T20:34:58.434Z,99.31
2022-10-21T20:37:24.877Z,99.14
2022-10-21T20:39:51.311Z,98.82
2022-10-21T20:42:17.691Z,99.43
2022-10-21T20:44:48.100Z,99.49
2022-10-21T20:47:14.587Z,99.36
2022-10-21T20:49:41.015Z,99.61
2022-10-21T20:52:07.484Z,99.63
2022-10-21T20:54:33.952Z,99.28
2022-10-21T20:57:00.541Z,99.47
2022-10-21T20:59:26.967Z,99.33
2022-10-21T21:01:53.464Z,99.72
2022-10-21T21:04:19.903Z,99.70
2022-10-21T21:06:48.668Z,100.00
2022-10-21T21:09:37.750Z,99.42
2022-10-21T21:12:01.733Z,99.45
2022-10-21T21:14:28.122Z,99.63
2022-10-21T21:16:54.573Z,99.46
2022-10-21T21:19:20.977Z,100.00
2022-10-21T21:21:47.358Z,99.55
2022-10-21T21:24:13.781Z,99.97
2022-10-21T21:26:40.197Z,100.00
2022-10-21T21:29:07.137Z,99.04
2022-10-21T21:31:33.895Z,100.00
2022-10-21T21:34:00.390Z,100.00
2022-10-21T21:36:26.887Z,100.00
2022-10-21T21:38:53.271Z,99.34
2022-10-21T21:41:20.391Z,99.65
2022-10-21T21:43:47.666Z,99.40
2022-10-21T21:46:14.132Z,100.00
2022-10-21T21:48:43.131Z,100.00
2022-10-21T21:51:12.514Z,99.99
2022-10-21T21:53:38.982Z,100.00
2022-10-21T21:56:05.900Z,100.00
2022-10-21T21:58:32.283Z,99.83
2022-10-21T22:01:17.034Z,100.00
2022-10-21T22:03:43.487Z,100.00
2022-10-21T22:06:10.099Z,99.76
2022-10-21T22:08:40.598Z,99.96
2022-10-21T22:11:11.764Z,100.00
2022-10-21T22:13:38.355Z,100.00
2022-10-21T22:16:05.295Z,100.00
2022-10-21T22:18:31.685Z,100.00
2022-10-21T22:20:59.587Z,100.00
2022-10-21T22:23:26.295Z,100.00
2022-10-21T22:25:52.681Z,100.00
2022-10-21T22:28:19.073Z,100.00
2022-10-21T22:30:45.497Z,100.00
2022-10-21T22:33:11.892Z,100.00
2022-10-21T22:35:38.290Z,100.00
2022-10-21T22:38:05.173Z,100.00
2022-10-21T22:40:42.854Z,100.00
2022-10-21T22:43:09.561Z,100.00
2022-10-21T22:45:35.974Z,100.00
2022-10-21T22:48:02.348Z,100.00
2022-10-21T22:50:28.736Z,100.00
2022-10-21T22:52:55.140Z,100.00
2022-10-21T22:55:21.516Z,100.00
2022-10-21T22:57:48.130Z,100.00
2022-10-21T23:00:14.680Z,100.00
2022-10-21T23:02:41.351Z,100.00
2022-10-21T23:05:08.126Z,100.00
2022-10-21T23:07:34.510Z,100.00
2022-10-21T23:10:00.978Z,100.00
2022-10-21T23:12:27.454Z,100.00
2022-10-21T23:14:53.838Z,100.00
2022-10-21T23:17:20.227Z,100.00
2022-10-21T23:19:46.640Z,100.00
2022-10-21T23:22:13.370Z,100.00
2022-10-21T23:24:39.750Z,100.00
2022-10-21T23:27:06.152Z,100.00
2022-10-21T23:29:32.533Z,100.00
2022-10-21T23:31:58.934Z,100.00
2022-10-21T23:34:25.351Z,100.00
2022-10-21T23:36:51.720Z,100.00
2022-10-21T23:39:18.109Z,100.00
2022-10-21T23:41:44.480Z,100.00
2022-10-21T23:44:10.874Z,100.00
2022-10-21T23:46:37.251Z,100.00
2022-10-21T23:49:03.730Z,100.00
2022-10-21T23:51:30.099Z,100.00
2022-10-21T23:53:56.506Z,99.90
2022-10-21T23:56:22.925Z,100.00
2022-10-21T23:58:49.329Z,100.00
